createdAt,value
2022-08-12T00:02:02.810Z,4.10
2022-08-12T00:04:52.982Z,4.35
2022-08-12T00:07:39.899Z,5.47
2022-08-12T00:10:27.289Z,4.30
2022-08-12T00:13:15.059Z,4.43
2022-08-12T00:16:04.260Z,4.68
2022-08-12T00:18:51.152Z,4.30
2022-08-12T00:21:38.880Z,4.13
2022-08-12T00:24:28.114Z,4.40
2022-08-12T00:27:16.564Z,4.45
2022-08-12T00:30:03.435Z,4.13
2022-08-12T00:32:56.826Z,4.30
2022-08-12T00:35:44.392Z,4.45
2022-08-12T00:38:32.417Z,4.68
2022-08-12T00:41:21.260Z,4.32
2022-08-12T00:43:50.524Z,4.47
2022-08-12T00:46:38.217Z,4.47
2022-08-12T00:49:07.670Z,5.13
2022-08-12T00:51:59.040Z,4.18
2022-08-12T00:54:27.766Z,4.32
2022-08-12T00:57:07.415Z,4.35
2022-08-12T00:59:37.904Z,3.83
2022-08-12T01:02:12.224Z,3.80
2022-08-12T01:05:02.373Z,3.95
2022-08-12T01:07:57.867Z,4.38
2022-08-12T01:10:49.908Z,4.50
2022-08-12T01:13:20.503Z,3.92
2022-08-12T01:15:55.746Z,4.07
2022-08-12T01:18:31.029Z,3.85
2022-08-12T01:21:24.800Z,3.83
2022-08-12T01:24:31.967Z,3.92
2022-08-12T01:27:07.544Z,4.07
2022-08-12T01:29:42.748Z,4.13
2022-08-12T01:32:14.574Z,3.80
2022-08-12T01:34:55.218Z,4.70
2022-08-12T01:37:26.971Z,3.90
2022-08-12T01:42:49.893Z,4.00
2022-08-12T01:45:24.752Z,4.55
2022-08-12T01:48:05.546Z,3.65
2022-08-12T01:51:06.335Z,3.65
2022-08-12T01:53:59.614Z,4.20
2022-08-12T01:56:31.260Z,3.95
2022-08-12T01:59:21.301Z,3.80
2022-08-12T02:01:52.411Z,3.80
2022-08-12T02:05:24.375Z,3.55
2022-08-12T02:08:25.671Z,3.90
2022-08-12T02:11:22.832Z,3.45
2022-08-12T02:14:12.297Z,3.63
2022-08-12T02:16:54.496Z,3.70
2022-08-12T02:19:42.508Z,4.30
2022-08-12T02:22:31.185Z,3.80
2022-08-12T02:25:08.182Z,3.80
2022-08-12T02:27:56.393Z,3.83
2022-08-12T02:30:26.973Z,4.07
2022-08-12T02:33:11.179Z,3.65
2022-08-12T02:35:40.316Z,3.63
2022-08-12T02:38:11.730Z,3.65
2022-08-12T02:40:43.230Z,3.60
2022-08-12T02:43:41.410Z,3.28
2022-08-12T02:46:14.957Z,3.45
2022-08-12T02:48:58.592Z,3.80
2022-08-12T02:51:33.579Z,3.75
2022-08-12T02:54:06.550Z,3.92
2022-08-12T02:56:50.502Z,3.75
2022-08-12T02:59:23.073Z,3.80
2022-08-12T03:01:54.243Z,3.90
2022-08-12T03:04:50.990Z,4.00
2022-08-12T03:07:56.463Z,3.90
2022-08-12T03:10:37.362Z,4.00
2022-08-12T03:13:08.649Z,3.78
2022-08-12T03:15:37.367Z,3.70
2022-08-12T03:18:27.467Z,3.83
2022-08-12T03:20:59.409Z,4.28
2022-08-12T03:23:31.211Z,4.03
2022-08-12T03:26:02.693Z,4.53
2022-08-12T03:28:54.214Z,4.68
2022-08-12T03:31:30.079Z,4.60
2022-08-12T03:34:04.818Z,4.65
2022-08-12T03:36:36.075Z,4.22
2022-08-12T03:39:18.845Z,3.85
2022-08-12T03:41:50.366Z,4.03
2022-08-12T03:44:56.367Z,4.03
2022-08-12T03:48:18.788Z,4.25
2022-08-12T03:51:07.266Z,3.97
2022-08-12T03:53:54.800Z,4.15
2022-08-12T03:56:41.605Z,4.45
2022-08-12T03:59:29.040Z,4.45
2022-08-12T04:01:57.950Z,4.20
2022-08-12T04:04:34.307Z,3.80
2022-08-12T04:07:09.077Z,4.53
2022-08-12T04:09:43.489Z,4.15
2022-08-12T04:12:40.123Z,4.05
2022-08-12T04:15:14.658Z,4.03
2022-08-12T04:18:07.498Z,4.30
2022-08-12T04:20:32.322Z,3.70
2022-08-12T04:23:02.599Z,3.50
2022-08-12T04:25:34.866Z,4.82
2022-08-12T04:28:13.048Z,4.53
2022-08-12T04:30:43.340Z,3.80
2022-08-12T04:33:12.906Z,3.97
2022-08-12T04:35:41.122Z,3.67
2022-08-12T04:38:10.249Z,3.90
2022-08-12T04:40:39.593Z,3.70
2022-08-12T04:44:00.684Z,3.75
2022-08-12T04:45:58.572Z,5.72
2022-08-12T04:48:26.851Z,5.50
2022-08-12T04:50:56.973Z,4.70
2022-08-12T04:53:25.658Z,3.78
2022-08-12T04:55:55.072Z,4.40
2022-08-12T04:58:29.353Z,3.90
2022-08-12T05:00:58.628Z,3.70
2022-08-12T05:03:27.427Z,4.70
2022-08-12T05:05:58.424Z,4.00
2022-08-12T05:08:28.679Z,4.25
2022-08-12T05:10:57.993Z,3.90
2022-08-12T05:13:37.589Z,3.70
2022-08-12T05:16:09.319Z,3.75
2022-08-12T05:18:39.800Z,4.22
2022-08-12T05:21:09.593Z,3.70
2022-08-12T05:23:39.551Z,4.20
2022-08-12T05:26:08.094Z,4.53
2022-08-12T05:28:37.056Z,4.43
2022-08-12T05:31:05.727Z,3.67
2022-08-12T05:33:41.016Z,3.80
2022-08-12T05:36:14.095Z,4.00
2022-08-12T05:38:59.631Z,3.95
2022-08-12T05:41:32.336Z,3.70
2022-08-12T05:44:05.813Z,3.60
2022-08-12T05:46:36.340Z,4.25
2022-08-12T05:49:06.203Z,4.25
2022-08-12T05:51:42.627Z,4.07
2022-08-12T05:54:12.307Z,3.50
2022-08-12T05:56:41.714Z,3.83
2022-08-12T05:59:12.263Z,3.90
2022-08-12T06:02:11.560Z,3.75
2022-08-12T06:04:31.424Z,3.15
2022-08-12T06:07:01.954Z,3.95
2022-08-12T06:09:31.066Z,4.30
2022-08-12T06:12:05.954Z,3.55
2022-08-12T06:14:38.763Z,3.75
2022-08-12T06:17:09.585Z,3.90
2022-08-12T06:20:29.542Z,3.50
2022-08-12T06:22:27.105Z,3.65
2022-08-12T06:24:55.800Z,4.28
2022-08-12T06:27:24.480Z,3.53
2022-08-12T06:30:10.302Z,3.40
2022-08-12T06:32:51.848Z,3.50
2022-08-12T06:35:49.232Z,3.55
2022-08-12T06:38:25.429Z,3.72
2022-08-12T06:41:15.278Z,3.20
2022-08-12T06:44:06.224Z,3.30
2022-08-12T06:46:33.002Z,3.55
2022-08-12T06:49:01.666Z,4.38
2022-08-12T06:51:32.498Z,3.70
2022-08-12T06:54:01.880Z,3.45
2022-08-12T06:57:01.777Z,3.22
2022-08-12T06:59:21.549Z,3.55
2022-08-12T07:01:51.151Z,3.67
2022-08-12T07:04:37.965Z,3.30
2022-08-12T07:07:11.041Z,3.70
2022-08-12T07:10:00.109Z,3.45
2022-08-12T07:12:32.359Z,3.40
2022-08-12T07:15:02.142Z,3.20
2022-08-12T07:17:36.470Z,3.10
2022-08-12T07:20:29.702Z,3.00
2022-08-12T07:23:00.595Z,3.80
2022-08-12T07:25:37.165Z,3.13
2022-08-12T07:28:16.142Z,3.40
2022-08-12T07:30:49.355Z,3.60
2022-08-12T07:33:22.404Z,3.38
2022-08-12T07:35:54.195Z,3.45
2022-08-12T07:41:06.336Z,4.05
2022-08-12T07:43:38.923Z,3.22
2022-08-12T07:46:11.471Z,3.60
2022-08-12T07:48:43.724Z,3.33
2022-08-12T07:51:25.375Z,3.25
2022-08-12T07:54:00.110Z,3.47
2022-08-12T07:56:31.352Z,3.03
2022-08-12T07:59:01.284Z,3.15
2022-08-12T08:01:30.339Z,3.03
2022-08-12T08:04:19.296Z,3.15
2022-08-12T08:06:49.065Z,3.15
2022-08-12T08:09:19.891Z,3.42
2022-08-12T08:12:07.219Z,2.88
2022-08-12T08:14:35.848Z,3.20
2022-08-12T08:17:06.763Z,3.28
2022-08-12T08:20:02.173Z,3.65
2022-08-12T08:22:25.055Z,3.28
2022-08-12T08:25:20.390Z,2.85
2022-08-12T08:28:09.733Z,3.10
2022-08-12T08:30:44.077Z,3.20
2022-08-12T08:33:23.220Z,3.28
2022-08-12T08:36:03.443Z,3.50
2022-08-12T08:38:34.936Z,2.95
2022-08-12T08:42:14.033Z,2.80
2022-08-12T08:44:12.289Z,3.30
2022-08-12T08:46:43.735Z,3.05
2022-08-12T08:49:14.292Z,2.65
2022-08-12T08:51:45.247Z,3.28
2022-08-12T08:54:13.956Z,3.13
2022-08-12T08:56:44.369Z,2.70
2022-08-12T08:59:13.894Z,2.88
2022-08-12T09:01:44.411Z,3.35
2022-08-12T09:05:11.190Z,3.00
2022-08-12T09:07:16.933Z,2.83
2022-08-12T09:10:02.911Z,2.90
2022-08-12T09:12:54.577Z,2.97
2022-08-12T09:15:35.401Z,2.92
2022-08-12T09:18:08.716Z,3.00
2022-08-12T09:20:40.038Z,2.92
2022-08-12T09:23:58.522Z,3.25
2022-08-12T09:26:04.409Z,2.75
2022-08-12T09:28:36.925Z,3.00
2022-08-12T09:32:03.543Z,2.60
2022-08-12T09:34:28.474Z,2.88
2022-08-12T09:37:01.167Z,2.83
2022-08-12T09:40:01.670Z,2.97
2022-08-12T09:42:48.374Z,2.78
2022-08-12T09:46:06.718Z,3.10
2022-08-12T09:48:22.139Z,3.15
2022-08-12T09:50:55.503Z,2.92
2022-08-12T09:53:36.567Z,3.03
2022-08-12T09:56:59.404Z,2.88
2022-08-12T09:59:02.807Z,2.70
2022-08-12T10:01:35.678Z,3.22
2022-08-12T10:04:20.896Z,2.88
2022-08-12T10:06:55.597Z,2.80
2022-08-12T10:09:56.925Z,3.20
2022-08-12T10:12:33.667Z,2.83
2022-08-12T10:15:02.439Z,2.92
2022-08-12T10:17:31.366Z,2.58
2022-08-12T10:20:01.491Z,2.95
2022-08-12T10:22:39.450Z,2.70
2022-08-12T10:26:18.247Z,2.70
2022-08-12T10:28:38.897Z,2.85
2022-08-12T10:31:16.507Z,3.05
2022-08-12T10:34:05.421Z,2.75
2022-08-12T10:36:42.816Z,2.78
2022-08-12T10:40:02.307Z,2.85
2022-08-12T10:42:39.649Z,2.67
2022-08-12T10:45:17.999Z,2.72
2022-08-12T10:48:07.833Z,2.85
2022-08-12T10:51:01.139Z,2.65
2022-08-12T10:53:43.991Z,2.67
2022-08-12T10:56:18.653Z,2.72
2022-08-12T10:58:47.948Z,2.90
2022-08-12T11:01:50.441Z,2.90
2022-08-12T11:04:25.352Z,2.80
2022-08-12T11:07:07.996Z,2.67
2022-08-12T11:10:00.965Z,2.70
2022-08-12T11:12:55.937Z,2.55
2022-08-12T11:15:24.330Z,2.63
2022-08-12T11:18:18.364Z,2.55
2022-08-12T11:20:48.667Z,2.80
2022-08-12T11:23:25.206Z,2.88
2022-08-12T11:26:07.854Z,2.47
2022-08-12T11:28:38.350Z,2.58
2022-08-12T11:31:14.177Z,2.60
2022-08-12T11:34:04.320Z,2.60
2022-08-12T11:36:32.575Z,2.60
2022-08-12T11:39:07.555Z,2.58
2022-08-12T11:41:40.386Z,2.35
2022-08-12T11:46:59.977Z,2.55
2022-08-12T11:49:31.328Z,2.70
2022-08-12T11:52:02.333Z,2.55
2022-08-12T11:54:31.546Z,2.70
2022-08-12T11:57:02.062Z,2.72
2022-08-12T12:02:21.476Z,2.50
2022-08-12T12:04:52.586Z,2.65
2022-08-12T12:08:36.204Z,2.65
2022-08-12T12:10:18.398Z,2.53
2022-08-12T12:12:49.909Z,2.50
2022-08-12T12:15:24.764Z,2.80
2022-08-12T12:17:56.002Z,2.47
2022-08-12T12:20:26.045Z,2.80
2022-08-12T12:22:56.095Z,2.15
2022-08-12T12:25:59.396Z,2.85
2022-08-12T12:28:37.023Z,2.60
2022-08-12T12:31:04.838Z,2.40
2022-08-12T12:33:57.366Z,2.50
2022-08-12T12:36:30.271Z,2.58
2022-08-12T12:39:00.116Z,2.42
2022-08-12T12:41:48.206Z,2.47
2022-08-12T12:44:26.110Z,2.70
2022-08-12T12:47:26.064Z,2.60
2022-08-12T12:49:55.274Z,2.65
2022-08-12T12:52:26.788Z,2.58
2022-08-12T12:54:58.766Z,2.55
2022-08-12T12:57:36.466Z,2.47
2022-08-12T13:00:18.089Z,2.30
2022-08-12T13:02:58.634Z,2.53
2022-08-12T13:05:29.777Z,2.60
2022-08-12T13:08:28.379Z,2.60
2022-08-12T13:11:06.507Z,2.38
2022-08-12T13:14:07.187Z,2.38
2022-08-12T13:16:26.755Z,2.53
2022-08-12T13:18:57.271Z,2.40
2022-08-12T13:21:36.661Z,2.53
2022-08-12T13:24:10.063Z,2.33
2022-08-12T13:26:40.461Z,2.65
2022-08-12T13:29:11.456Z,2.70
2022-08-12T13:31:46.371Z,2.57
2022-08-12T13:34:34.612Z,2.30
2022-08-12T13:37:09.665Z,2.30
2022-08-12T13:39:39.301Z,2.78
2022-08-12T13:42:13.778Z,2.45
2022-08-12T13:44:43.973Z,2.50
2022-08-12T13:47:19.826Z,2.45
2022-08-12T13:49:53.943Z,2.60
2022-08-12T13:52:25.701Z,2.47
2022-08-12T13:54:56.820Z,2.45
2022-08-12T13:57:44.493Z,2.13
2022-08-12T14:00:14.391Z,2.45
2022-08-12T14:02:43.113Z,2.50
2022-08-12T14:05:31.339Z,2.50
2022-08-12T14:08:06.207Z,2.08
2022-08-12T14:10:50.686Z,2.40
2022-08-12T14:14:05.472Z,2.50
2022-08-12T14:16:14.393Z,2.30
2022-08-12T14:18:44.811Z,2.50
2022-08-12T14:21:18.235Z,2.45
2022-08-12T14:24:08.201Z,2.63
2022-08-12T14:26:39.078Z,2.40
2022-08-12T14:29:07.586Z,2.35
2022-08-12T14:31:42.995Z,2.33
2022-08-12T14:34:11.580Z,2.35
2022-08-12T14:36:41.066Z,2.20
2022-08-12T14:39:10.708Z,2.40
2022-08-12T14:41:48.447Z,2.50
2022-08-12T14:44:57.231Z,2.28
2022-08-12T14:47:14.221Z,2.40
2022-08-12T14:50:37.327Z,2.70
2022-08-12T14:53:04.495Z,2.60
2022-08-12T14:58:12.011Z,2.85
2022-08-12T15:00:59.333Z,2.42
2022-08-12T15:03:52.334Z,2.40
2022-08-12T15:06:39.246Z,2.72
2022-08-12T15:09:12.033Z,2.60
2022-08-12T15:11:55.828Z,2.33
2022-08-12T15:14:30.283Z,2.40
2022-08-12T15:17:00.611Z,2.33
2022-08-12T15:20:04.773Z,2.42
2022-08-12T15:22:35.586Z,2.65
2022-08-12T15:25:07.954Z,2.33
2022-08-12T15:28:04.523Z,2.30
2022-08-12T15:30:34.135Z,2.53
2022-08-12T15:33:12.757Z,2.30
2022-08-12T15:35:52.236Z,2.37
2022-08-12T15:38:29.800Z,2.40
2022-08-12T15:41:00.178Z,2.50
2022-08-12T15:44:16.925Z,2.40
2022-08-12T15:46:21.147Z,2.38
2022-08-12T15:48:54.568Z,2.17
2022-08-12T15:51:58.426Z,2.50
2022-08-12T15:54:34.955Z,2.50
2022-08-12T15:57:08.001Z,2.08
2022-08-12T15:59:51.199Z,2.30
2022-08-12T16:02:29.461Z,2.22
2022-08-12T16:04:58.759Z,2.40
2022-08-12T16:07:40.827Z,2.50
2022-08-12T16:10:09.746Z,2.10
2022-08-12T16:12:54.525Z,2.20
2022-08-12T16:15:26.724Z,2.20
2022-08-12T16:18:15.413Z,2.20
2022-08-12T16:20:47.363Z,2.10
2022-08-12T16:23:35.975Z,2.38
2022-08-12T16:26:15.137Z,2.38
2022-08-12T16:28:47.313Z,2.25
2022-08-12T16:31:23.441Z,2.40
2022-08-12T16:33:59.345Z,2.13
2022-08-12T16:36:29.961Z,2.30
2022-08-12T16:39:01.255Z,2.20
2022-08-12T16:41:39.740Z,2.28
2022-08-12T16:44:09.066Z,2.55
2022-08-12T16:46:38.170Z,2.42
2022-08-12T16:49:13.899Z,2.38
2022-08-12T16:51:45.877Z,2.03
2022-08-12T16:54:17.263Z,2.53
2022-08-12T16:56:54.720Z,2.25
2022-08-12T16:59:25.648Z,2.17
2022-08-12T17:01:54.635Z,2.40
2022-08-12T17:04:24.247Z,2.40
2022-08-12T17:06:53.232Z,4.13
2022-08-12T17:09:22.224Z,3.47
2022-08-12T17:11:50.674Z,3.40
2022-08-12T17:14:20.504Z,3.60
2022-08-12T17:16:55.044Z,4.22
2022-08-12T17:20:28.576Z,4.43
2022-08-12T17:22:16.713Z,4.85
2022-08-12T17:24:55.703Z,5.47
2022-08-12T17:27:26.567Z,5.50
2022-08-12T17:30:02.987Z,5.13
2022-08-12T17:32:35.080Z,6.80
2022-08-12T17:35:21.880Z,6.25
2022-08-12T17:38:05.356Z,9.30
2022-08-12T17:40:37.089Z,9.65
2022-08-12T17:43:52.140Z,11.02
2022-08-12T17:46:00.132Z,9.65
2022-08-12T17:48:34.822Z,9.55
2022-08-12T17:51:15.228Z,9.40
2022-08-12T17:54:10.335Z,7.82
2022-08-12T17:56:39.484Z,8.18
2022-08-12T17:59:09.814Z,7.07
2022-08-12T18:01:45.642Z,7.63
2022-08-12T18:04:22.834Z,7.53
2022-08-12T18:06:52.877Z,7.72
2022-08-12T18:09:24.486Z,6.65
2022-08-12T18:12:12.795Z,7.17
2022-08-12T18:14:47.507Z,7.38
2022-08-12T18:17:17.985Z,6.80
2022-08-12T18:20:05.750Z,6.90
2022-08-12T18:22:36.456Z,7.00
2022-08-12T18:26:12.437Z,7.07
2022-08-12T18:28:15.846Z,6.80
2022-08-12T18:30:53.313Z,7.10
2022-08-12T18:33:28.183Z,7.07
2022-08-12T18:35:58.359Z,7.20
2022-08-12T18:38:28.023Z,7.47
2022-08-12T18:41:21.150Z,7.10
2022-08-12T18:44:03.154Z,7.75
2022-08-12T18:46:33.415Z,7.45
2022-08-12T18:49:18.320Z,7.10
2022-08-12T18:52:02.396Z,6.60
2022-08-12T18:54:35.346Z,7.10
2022-08-12T18:57:19.293Z,7.18
2022-08-12T19:00:06.587Z,7.53
2022-08-12T19:02:39.871Z,7.15
2022-08-12T19:05:11.564Z,7.40
2022-08-12T19:08:00.212Z,7.38
2022-08-12T19:10:32.037Z,7.18
2022-08-12T19:13:23.731Z,7.25
2022-08-12T19:15:57.568Z,7.15
2022-08-12T19:18:29.340Z,7.88
2022-08-12T19:21:11.694Z,7.90
2022-08-12T19:23:44.394Z,7.55
2022-08-12T19:26:13.278Z,7.63
2022-08-12T19:28:43.703Z,8.80
2022-08-12T19:31:56.827Z,7.70
2022-08-12T19:37:38.523Z,8.23
2022-08-12T19:40:30.971Z,10.35
2022-08-12T19:43:17.951Z,9.45
2022-08-12T19:45:54.526Z,9.90
2022-08-12T19:48:32.963Z,9.45
2022-08-12T19:51:09.269Z,9.70
2022-08-12T19:56:41.085Z,10.23
2022-08-12T19:59:43.599Z,10.80
2022-08-12T20:02:21.509Z,9.50
2022-08-12T20:06:03.841Z,10.35
2022-08-12T20:07:59.442Z,9.85
2022-08-12T20:10:35.542Z,10.05
2022-08-12T20:13:17.458Z,10.98
2022-08-12T20:15:49.881Z,10.25
2022-08-12T20:18:43.820Z,10.00
2022-08-12T20:21:15.070Z,10.02
2022-08-12T20:24:00.402Z,11.50
2022-08-12T20:26:29.847Z,10.90
2022-08-12T20:29:01.454Z,10.60
2022-08-12T20:31:31.716Z,10.38
2022-08-12T20:34:01.737Z,11.30
2022-08-12T20:36:42.428Z,11.35
2022-08-12T20:39:17.565Z,11.10
2022-08-12T20:42:07.254Z,11.25
2022-08-12T20:44:39.924Z,10.95
2022-08-12T20:47:18.769Z,11.43
2022-08-12T20:49:54.846Z,12.20
2022-08-12T20:52:41.671Z,11.50
2022-08-12T20:55:15.279Z,11.85
2022-08-12T20:58:02.472Z,11.43
2022-08-12T21:00:32.972Z,11.65
2022-08-12T21:03:21.359Z,11.40
2022-08-12T21:06:13.492Z,11.98
2022-08-12T21:08:43.885Z,12.35
2022-08-12T21:11:12.376Z,12.32
2022-08-12T21:13:41.784Z,12.40
2022-08-12T21:16:10.691Z,12.88
2022-08-12T21:18:40.055Z,12.07
2022-08-12T21:21:23.227Z,13.25
2022-08-12T21:23:56.187Z,12.85
2022-08-12T21:26:26.511Z,12.38
2022-08-12T21:29:01.635Z,13.25
2022-08-12T21:32:36.233Z,12.75
2022-08-12T21:34:29.277Z,12.93
2022-08-12T21:37:12.893Z,13.57
2022-08-12T21:39:56.423Z,13.07
2022-08-12T21:42:28.000Z,12.63
2022-08-12T21:45:46.652Z,13.18
2022-08-12T21:47:53.157Z,13.30
2022-08-12T21:50:21.938Z,12.85
2022-08-12T21:53:10.032Z,12.60
2022-08-12T21:55:39.737Z,12.68
2022-08-12T21:58:16.756Z,13.00
2022-08-12T22:00:45.666Z,13.10
2022-08-12T22:04:03.647Z,12.48
2022-08-12T22:06:31.752Z,12.85
2022-08-12T22:09:16.595Z,12.80
2022-08-12T22:11:56.467Z,13.00
2022-08-12T22:14:28.980Z,13.93
2022-08-12T22:17:00.770Z,13.05
2022-08-12T22:21:58.743Z,12.45
2022-08-12T22:24:30.892Z,12.30
2022-08-12T22:27:22.819Z,13.07
2022-08-12T22:30:08.566Z,13.02
2022-08-12T22:32:50.748Z,12.48
2022-08-12T22:35:47.423Z,12.73
2022-08-12T22:38:23.983Z,12.93
2022-08-12T22:41:00.558Z,12.23
2022-08-12T22:43:58.800Z,13.00
2022-08-12T22:46:52.465Z,12.45
2022-08-12T22:49:36.816Z,12.45
2022-08-12T22:52:18.596Z,13.25
2022-08-12T22:55:02.561Z,12.88
2022-08-12T22:57:53.896Z,12.95
2022-08-12T23:00:24.507Z,12.10
2022-08-12T23:03:02.707Z,13.02
2022-08-12T23:05:57.354Z,13.15
2022-08-12T23:08:30.066Z,12.23
2022-08-12T23:11:00.852Z,12.70
2022-08-12T23:13:54.886Z,12.45
2022-08-12T23:16:31.504Z,12.25
2022-08-12T23:19:10.704Z,12.75
2022-08-12T23:22:06.167Z,12.93
2022-08-12T23:24:56.475Z,12.48
2022-08-12T23:27:50.893Z,12.35
2022-08-12T23:30:32.230Z,11.82
2022-08-12T23:33:13.461Z,12.65
2022-08-12T23:36:03.053Z,12.13
2022-08-12T23:38:34.832Z,11.88
2022-08-12T23:41:05.950Z,12.65
2022-08-12T23:43:40.476Z,12.73
2022-08-12T23:46:19.169Z,11.95
2022-08-12T23:48:52.957Z,11.80
2022-08-12T23:51:26.765Z,11.98
2022-08-12T23:54:04.116Z,12.00
2022-08-12T23:56:35.042Z,12.13
2022-08-12T23:59:05.270Z,11.68
